createdAt,value
2023-05-22T00:00:15.317Z,63.42
2023-05-22T00:00:47.015Z,63.40
2023-05-22T00:01:19.449Z,64.03
2023-05-22T00:01:56.766Z,63.63
2023-05-22T00:02:28.831Z,63.78
2023-05-22T00:03:00.839Z,63.65
2023-05-22T00:03:34.222Z,62.70
2023-05-22T00:04:06.955Z,63.20
2023-05-22T00:04:38.746Z,63.88
2023-05-22T00:05:12.060Z,64.38
2023-05-22T00:05:43.767Z,63.70
2023-05-22T00:06:15.931Z,62.70
2023-05-22T00:06:48.917Z,63.33
2023-05-22T00:07:20.717Z,63.30
2023-05-22T00:07:52.360Z,62.95
2023-05-22T00:08:26.296Z,63.95
2023-05-22T00:08:59.805Z,63.45
2023-05-22T00:09:31.459Z,63.40
2023-05-22T00:10:04.543Z,63.40
2023-05-22T00:10:36.580Z,63.53
2023-05-22T00:11:09.532Z,63.47
2023-05-22T00:11:41.574Z,63.55
2023-05-22T00:12:14.062Z,63.78
2023-05-22T00:12:46.988Z,63.47
2023-05-22T00:13:18.659Z,62.80
2023-05-22T00:13:50.367Z,63.72
2023-05-22T00:14:23.516Z,63.38
2023-05-22T00:14:55.323Z,63.58
2023-05-22T00:15:30.210Z,62.63
2023-05-22T00:16:03.114Z,63.35
2023-05-22T00:16:35.976Z,63.17
2023-05-22T00:17:07.861Z,63.85
2023-05-22T00:17:40.629Z,63.03
2023-05-22T00:18:13.945Z,62.95
2023-05-22T00:18:45.676Z,63.05
2023-05-22T00:19:18.868Z,63.80
2023-05-22T00:19:51.665Z,63.28
2023-05-22T00:20:23.504Z,63.53
2023-05-22T00:20:56.330Z,64.30
2023-05-22T00:21:29.197Z,63.42
2023-05-22T00:22:00.918Z,63.80
2023-05-22T00:22:35.448Z,63.00
2023-05-22T00:23:10.147Z,64.88
2023-05-22T00:23:42.889Z,63.50
2023-05-22T00:24:14.584Z,63.42
2023-05-22T00:24:47.250Z,64.18
2023-05-22T00:25:19.575Z,63.75
2023-05-22T00:25:51.444Z,63.15
2023-05-22T00:26:24.261Z,64.10
2023-05-22T00:26:55.984Z,63.15
2023-05-22T00:27:27.781Z,63.15
2023-05-22T00:28:00.455Z,64.05
2023-05-22T00:28:32.119Z,63.10
2023-05-22T00:29:05.883Z,62.92
2023-05-22T00:29:39.026Z,63.17
2023-05-22T00:30:11.280Z,63.63
2023-05-22T00:30:44.496Z,63.90
2023-05-22T00:31:17.643Z,62.60
2023-05-22T00:31:49.329Z,63.55
2023-05-22T00:32:21.086Z,64.95
2023-05-22T00:32:53.950Z,63.50
2023-05-22T00:33:25.892Z,63.60
2023-05-22T00:33:58.149Z,63.85
2023-05-22T00:34:30.909Z,64.47
2023-05-22T00:35:03.451Z,63.35
2023-05-22T00:35:35.288Z,62.83
2023-05-22T00:36:08.166Z,63.83
2023-05-22T00:36:40.217Z,64.03
2023-05-22T00:37:11.979Z,63.05
2023-05-22T00:37:46.099Z,64.07
2023-05-22T00:38:30.535Z,63.80
2023-05-22T00:39:02.335Z,63.55
2023-05-22T00:39:35.412Z,62.95
2023-05-22T00:40:08.419Z,63.60
2023-05-22T00:40:40.551Z,63.83
2023-05-22T00:41:13.443Z,63.35
2023-05-22T00:41:45.222Z,64.13
2023-05-22T00:42:17.301Z,63.35
2023-05-22T00:42:49.966Z,65.50
2023-05-22T00:43:21.652Z,64.35
2023-05-22T00:43:54.805Z,63.35
2023-05-22T00:44:27.175Z,62.88
2023-05-22T00:45:01.336Z,63.50
2023-05-22T00:45:34.029Z,63.85
2023-05-22T00:46:07.899Z,63.95
2023-05-22T00:46:40.054Z,65.13
2023-05-22T00:47:16.062Z,63.78
2023-05-22T00:47:48.092Z,65.30
2023-05-22T00:48:19.881Z,64.78
2023-05-22T00:48:53.543Z,63.50
2023-05-22T00:49:25.448Z,63.83
2023-05-22T00:49:57.461Z,64.00
2023-05-22T00:50:30.085Z,62.85
2023-05-22T00:51:03.390Z,63.58
2023-05-22T00:51:35.116Z,64.32
2023-05-22T00:52:08.399Z,63.95
2023-05-22T00:52:41.287Z,63.22
2023-05-22T00:53:13.241Z,64.68
2023-05-22T00:53:47.042Z,63.88
2023-05-22T00:54:18.753Z,63.80
2023-05-22T00:54:52.579Z,64.35
2023-05-22T00:55:24.245Z,64.40
2023-05-22T00:55:58.013Z,63.00
2023-05-22T00:56:29.776Z,63.00
2023-05-22T00:57:02.030Z,64.07
2023-05-22T00:57:34.847Z,63.00
2023-05-22T00:58:07.849Z,64.80
2023-05-22T00:58:39.584Z,63.83
2023-05-22T00:59:12.303Z,64.72
2023-05-22T00:59:44.255Z,63.80
2023-05-22T01:00:16.826Z,64.72
2023-05-22T01:00:49.791Z,63.47
2023-05-22T01:01:23.281Z,63.83
2023-05-22T01:01:56.019Z,63.95
2023-05-22T01:02:29.384Z,63.58
2023-05-22T01:03:01.670Z,63.33
2023-05-22T01:03:33.847Z,63.88
2023-05-22T01:04:08.153Z,62.58
2023-05-22T01:04:40.348Z,63.42
2023-05-22T01:05:13.280Z,63.40
2023-05-22T01:05:46.420Z,63.35
2023-05-22T01:06:18.426Z,63.70
2023-05-22T01:06:50.173Z,63.40
2023-05-22T01:07:23.862Z,63.80
2023-05-22T01:07:57.161Z,63.72
2023-05-22T01:08:29.120Z,63.05
2023-05-22T01:09:01.816Z,63.28
2023-05-22T01:09:33.575Z,63.13
2023-05-22T01:10:05.991Z,63.03
2023-05-22T01:10:40.082Z,64.07
2023-05-22T01:11:15.508Z,64.82
2023-05-22T01:11:51.336Z,63.85
2023-05-22T01:12:28.585Z,63.17
2023-05-22T01:13:04.053Z,63.60
2023-05-22T01:13:42.798Z,64.65
2023-05-22T01:14:17.666Z,64.03
2023-05-22T01:14:53.883Z,63.33
2023-05-22T01:15:31.601Z,63.30
2023-05-22T01:16:07.556Z,63.50
2023-05-22T01:16:46.899Z,63.20
2023-05-22T01:17:23.615Z,63.58
2023-05-22T01:18:01.585Z,63.65
2023-05-22T01:18:35.541Z,64.30
2023-05-22T01:19:15.984Z,63.30
2023-05-22T01:20:01.598Z,63.78
2023-05-22T01:20:36.880Z,63.63
2023-05-22T01:21:13.086Z,64.35
2023-05-22T01:21:48.508Z,62.95
2023-05-22T01:22:30.930Z,63.72
2023-05-22T01:23:12.065Z,63.92
2023-05-22T01:24:04.147Z,63.25
2023-05-22T01:24:52.081Z,65.07
2023-05-22T01:25:41.654Z,63.53
2023-05-22T01:26:22.975Z,64.30
2023-05-22T01:27:09.535Z,64.13
2023-05-22T01:27:59.666Z,63.17
2023-05-22T01:28:42.053Z,63.53
2023-05-22T01:29:37.566Z,63.67
2023-05-22T01:30:18.494Z,63.65
2023-05-22T01:30:54.496Z,62.70
2023-05-22T01:31:27.147Z,64.03
2023-05-22T01:32:00.366Z,63.70
2023-05-22T01:32:33.577Z,63.35
2023-05-22T01:33:07.178Z,62.97
2023-05-22T01:33:43.679Z,63.28
2023-05-22T01:34:18.789Z,62.58
2023-05-22T01:34:52.692Z,63.53
2023-05-22T01:35:25.795Z,62.25
2023-05-22T01:35:57.912Z,63.08
2023-05-22T01:36:31.573Z,63.63
2023-05-22T01:37:06.041Z,62.65
2023-05-22T01:37:38.634Z,63.05
2023-05-22T01:38:11.041Z,62.92
2023-05-22T01:38:44.249Z,63.05
2023-05-22T01:39:16.224Z,63.63
2023-05-22T01:39:48.226Z,63.55
2023-05-22T01:40:21.628Z,63.10
2023-05-22T01:40:53.984Z,63.40
2023-05-22T01:41:25.901Z,63.78
2023-05-22T01:41:58.987Z,62.17
2023-05-22T01:42:31.713Z,63.72
2023-05-22T01:43:06.018Z,62.63
2023-05-22T01:43:39.944Z,64.32
2023-05-22T01:44:11.741Z,63.35
2023-05-22T01:44:43.459Z,64.03
2023-05-22T01:45:16.099Z,63.40
2023-05-22T01:45:51.526Z,64.78
2023-05-22T01:46:25.476Z,63.58
2023-05-22T01:47:00.577Z,63.08
2023-05-22T01:47:33.855Z,62.47
2023-05-22T01:48:05.763Z,63.03
2023-05-22T01:48:38.535Z,63.70
2023-05-22T01:49:11.332Z,63.05
2023-05-22T01:49:43.181Z,62.75
2023-05-22T01:50:16.204Z,63.30
2023-05-22T01:50:52.674Z,63.05
2023-05-22T01:51:28.448Z,63.17
2023-05-22T01:52:03.913Z,64.15
2023-05-22T01:52:37.480Z,63.35
2023-05-22T01:53:13.474Z,63.40
2023-05-22T01:53:48.190Z,63.28
2023-05-22T01:54:24.134Z,62.55
2023-05-22T01:54:59.663Z,63.70
2023-05-22T01:55:35.158Z,63.45
2023-05-22T01:56:11.318Z,63.75
2023-05-22T01:56:46.608Z,62.97
2023-05-22T01:57:19.312Z,63.75
2023-05-22T01:57:56.031Z,63.57
2023-05-22T01:58:32.068Z,63.30
2023-05-22T01:59:08.755Z,63.28
2023-05-22T01:59:45.544Z,64.00
2023-05-22T02:01:36.869Z,63.63
2023-05-22T02:02:11.934Z,63.55
2023-05-22T02:02:45.101Z,63.08
2023-05-22T02:03:19.162Z,63.40
2023-05-22T02:03:56.534Z,63.28
2023-05-22T02:04:29.120Z,63.28
2023-05-22T02:05:01.065Z,64.35
2023-05-22T02:05:35.707Z,64.72
2023-05-22T02:06:10.237Z,63.72
2023-05-22T02:06:43.028Z,63.55
2023-05-22T02:07:16.700Z,64.50
2023-05-22T02:07:49.257Z,63.45
2023-05-22T02:08:22.720Z,63.47
2023-05-22T02:08:56.153Z,62.90
2023-05-22T02:09:29.591Z,63.00
2023-05-22T02:10:02.656Z,63.67
2023-05-22T02:10:36.390Z,62.45
2023-05-22T02:11:10.124Z,64.07
2023-05-22T02:11:42.295Z,62.90
2023-05-22T02:12:15.589Z,63.10
2023-05-22T02:12:47.379Z,63.83
2023-05-22T02:13:19.089Z,63.88
2023-05-22T02:13:52.305Z,63.33
2023-05-22T02:14:23.971Z,62.60
2023-05-22T02:14:55.705Z,64.00
2023-05-22T02:15:28.385Z,63.27
2023-05-22T02:16:01.577Z,64.75
2023-05-22T02:16:33.400Z,64.30
2023-05-22T02:17:07.729Z,64.55
2023-05-22T02:17:40.896Z,63.90
2023-05-22T02:18:14.870Z,64.35
2023-05-22T02:18:48.402Z,64.28
2023-05-22T02:19:20.250Z,64.15
2023-05-22T02:19:53.049Z,63.65
2023-05-22T02:20:25.336Z,64.63
2023-05-22T02:20:57.093Z,63.95
2023-05-22T02:21:30.108Z,64.47
2023-05-22T02:22:01.778Z,64.95
2023-05-22T02:22:33.411Z,63.70
2023-05-22T02:23:06.360Z,64.18
2023-05-22T02:23:38.099Z,64.72
2023-05-22T02:24:09.993Z,64.00
2023-05-22T02:24:43.991Z,64.07
2023-05-22T02:25:17.278Z,63.53
2023-05-22T02:25:50.153Z,62.75
2023-05-22T02:26:23.041Z,63.13
2023-05-22T02:26:54.756Z,63.33
2023-05-22T02:27:26.621Z,63.63
2023-05-22T02:28:00.785Z,63.85
2023-05-22T02:28:33.638Z,64.97
2023-05-22T02:29:05.930Z,63.38
2023-05-22T02:29:38.619Z,63.72
2023-05-22T02:30:10.937Z,63.47
2023-05-22T02:30:43.693Z,63.20
2023-05-22T02:31:18.298Z,63.03
2023-05-22T02:31:50.096Z,64.18
2023-05-22T02:32:22.024Z,63.80
2023-05-22T02:32:57.492Z,62.63
2023-05-22T02:33:29.957Z,64.75
2023-05-22T02:34:05.355Z,63.08
2023-05-22T02:34:38.069Z,63.63
2023-05-22T02:35:10.251Z,63.60
2023-05-22T02:35:43.011Z,63.60
2023-05-22T02:36:14.897Z,63.03
2023-05-22T02:36:47.754Z,63.55
2023-05-22T02:37:20.619Z,64.78
2023-05-22T02:37:52.335Z,64.40
2023-05-22T02:38:24.148Z,63.45
2023-05-22T02:38:56.047Z,63.13
2023-05-22T02:39:29.541Z,65.28
2023-05-22T02:40:01.546Z,64.45
2023-05-22T02:40:35.137Z,63.58
2023-05-22T02:41:08.472Z,64.40
2023-05-22T02:41:40.254Z,64.47
2023-05-22T02:42:12.520Z,63.60
2023-05-22T02:42:45.284Z,64.00
2023-05-22T02:43:17.520Z,64.32
2023-05-22T02:43:49.210Z,64.03
2023-05-22T02:44:21.855Z,63.28
2023-05-22T02:44:53.526Z,64.32
2023-05-22T02:45:25.377Z,64.13
2023-05-22T02:45:58.089Z,63.42
2023-05-22T02:46:29.905Z,64.03
2023-05-22T02:47:01.957Z,64.75
2023-05-22T02:47:35.160Z,64.90
2023-05-22T02:48:08.279Z,63.55
2023-05-22T02:48:40.040Z,65.95
2023-05-22T02:49:13.202Z,64.63
2023-05-22T02:49:45.008Z,64.03
2023-05-22T02:50:16.723Z,63.90
2023-05-22T02:50:49.506Z,64.13
2023-05-22T02:51:21.149Z,64.20
2023-05-22T02:51:52.809Z,64.63
2023-05-22T02:52:25.883Z,63.53
2023-05-22T02:52:57.558Z,64.72
2023-05-22T02:53:29.247Z,64.95
2023-05-22T02:54:01.965Z,63.72
2023-05-22T02:54:33.783Z,63.72
2023-05-22T02:55:06.046Z,64.47
2023-05-22T02:55:38.684Z,63.63
2023-05-22T02:56:11.123Z,64.20
2023-05-22T02:56:43.112Z,64.80
2023-05-22T02:57:16.744Z,64.75
2023-05-22T02:57:48.605Z,64.53
2023-05-22T02:58:21.255Z,63.92
2023-05-22T02:58:53.973Z,64.53
2023-05-22T02:59:25.723Z,64.07
2023-05-22T02:59:57.699Z,64.85
2023-05-22T03:00:30.391Z,64.10
2023-05-22T03:01:03.490Z,65.38
2023-05-22T03:01:36.501Z,63.67
2023-05-22T03:02:09.326Z,63.65
2023-05-22T03:02:41.089Z,64.10
2023-05-22T03:03:18.158Z,64.22
2023-05-22T03:03:50.988Z,62.97
2023-05-22T03:04:22.916Z,63.72
2023-05-22T03:04:54.592Z,64.03
2023-05-22T03:05:27.275Z,63.85
2023-05-22T03:05:58.985Z,64.50
2023-05-22T03:06:31.821Z,63.75
2023-05-22T03:07:05.564Z,63.75
2023-05-22T03:07:37.756Z,64.25
2023-05-22T03:08:09.488Z,64.13
2023-05-22T03:08:44.303Z,64.63
2023-05-22T03:09:16.315Z,63.47
2023-05-22T03:09:47.985Z,63.55
2023-05-22T03:10:20.725Z,63.78
2023-05-22T03:10:52.412Z,64.65
2023-05-22T03:11:24.072Z,63.00
2023-05-22T03:11:55.742Z,64.45
2023-05-22T03:12:28.412Z,64.40
2023-05-22T03:13:00.184Z,63.72
2023-05-22T03:13:33.151Z,63.47
2023-05-22T03:14:04.916Z,64.15
2023-05-22T03:14:36.803Z,64.00
2023-05-22T03:15:09.092Z,63.15
2023-05-22T03:15:42.173Z,64.07
2023-05-22T03:16:18.293Z,64.45
2023-05-22T03:16:54.703Z,64.80
2023-05-22T03:17:27.897Z,64.07
2023-05-22T03:17:59.594Z,64.43
2023-05-22T03:18:32.929Z,63.38
2023-05-22T03:19:09.245Z,63.92
2023-05-22T03:19:41.704Z,64.03
2023-05-22T03:20:16.866Z,64.30
2023-05-22T03:20:49.800Z,64.32
2023-05-22T03:21:21.456Z,64.18
2023-05-22T03:21:54.543Z,65.10
2023-05-22T03:22:28.781Z,64.25
2023-05-22T03:23:01.163Z,63.72
2023-05-22T03:23:33.307Z,64.35
2023-05-22T03:24:06.288Z,64.25
2023-05-22T03:24:38.751Z,64.50
2023-05-22T03:25:11.302Z,63.47
2023-05-22T03:25:44.379Z,63.85
2023-05-22T03:26:16.599Z,63.95
2023-05-22T03:26:48.859Z,64.15
2023-05-22T03:27:27.025Z,64.78
2023-05-22T03:27:59.019Z,63.63
2023-05-22T03:28:33.033Z,63.42
2023-05-22T03:29:20.137Z,63.78
2023-05-22T03:29:55.247Z,64.65
2023-05-22T03:30:28.169Z,64.40
2023-05-22T03:31:15.381Z,63.67
2023-05-22T03:32:05.028Z,63.88
2023-05-22T03:32:38.394Z,63.60
2023-05-22T03:33:11.932Z,64.13
2023-05-22T03:33:45.955Z,63.97
2023-05-22T03:34:18.271Z,64.53
2023-05-22T03:34:56.012Z,63.78
2023-05-22T03:35:27.991Z,64.70
2023-05-22T03:35:59.894Z,63.28
2023-05-22T03:36:37.734Z,64.60
2023-05-22T03:37:10.972Z,64.35
2023-05-22T03:37:49.755Z,64.18
2023-05-22T03:38:23.097Z,63.92
2023-05-22T03:38:57.217Z,63.83
2023-05-22T03:39:29.594Z,65.00
2023-05-22T03:40:07.709Z,63.60
2023-05-22T03:40:39.788Z,63.83
2023-05-22T03:41:12.284Z,64.43
2023-05-22T03:41:45.040Z,64.75
2023-05-22T03:42:17.594Z,64.00
2023-05-22T03:42:50.053Z,64.43
2023-05-22T03:43:23.550Z,64.03
2023-05-22T03:43:55.418Z,63.92
2023-05-22T03:44:28.306Z,64.43
2023-05-22T03:45:01.572Z,63.78
2023-05-22T03:45:33.577Z,63.60
2023-05-22T03:46:05.558Z,64.35
2023-05-22T03:46:38.327Z,63.63
2023-05-22T03:47:10.766Z,63.70
2023-05-22T03:47:42.499Z,63.35
2023-05-22T03:48:15.220Z,63.88
2023-05-22T03:48:48.454Z,64.38
2023-05-22T03:49:20.144Z,64.80
2023-05-22T03:49:52.827Z,64.93
2023-05-22T03:50:24.524Z,64.47
2023-05-22T03:50:56.242Z,64.15
2023-05-22T03:51:28.873Z,64.68
2023-05-22T03:52:00.837Z,64.78
2023-05-22T03:52:32.500Z,65.43
2023-05-22T03:53:05.927Z,64.97
2023-05-22T03:53:37.585Z,64.72
2023-05-22T03:54:09.260Z,64.68
2023-05-22T03:54:41.026Z,65.13
2023-05-22T03:55:13.703Z,64.80
2023-05-22T03:55:45.974Z,64.68
2023-05-22T03:56:17.697Z,64.50
2023-05-22T03:56:51.764Z,64.55
2023-05-22T03:57:24.551Z,64.05
2023-05-22T03:57:56.730Z,64.45
2023-05-22T03:58:29.392Z,65.40
2023-05-22T03:59:01.071Z,64.15
2023-05-22T03:59:32.878Z,64.45
2023-05-22T04:00:09.751Z,64.32
2023-05-22T04:00:46.214Z,64.70
2023-05-22T04:01:18.013Z,64.85
2023-05-22T04:01:50.828Z,64.85
2023-05-22T04:02:26.375Z,64.72
2023-05-22T04:02:58.877Z,64.80
2023-05-22T04:03:31.741Z,64.30
2023-05-22T04:04:05.600Z,64.38
2023-05-22T04:04:38.691Z,65.03
2023-05-22T04:05:11.562Z,64.68
2023-05-22T04:05:43.308Z,64.13
2023-05-22T04:06:15.225Z,64.35
2023-05-22T04:06:47.965Z,64.57
2023-05-22T04:07:20.372Z,64.03
2023-05-22T04:07:52.124Z,64.60
2023-05-22T04:08:26.001Z,65.45
2023-05-22T04:08:57.654Z,64.40
2023-05-22T04:09:31.567Z,63.38
2023-05-22T04:10:04.679Z,64.43
2023-05-22T04:10:38.669Z,65.22
2023-05-22T04:11:11.079Z,64.05
2023-05-22T04:11:43.764Z,64.60
2023-05-22T04:12:15.495Z,65.80
2023-05-22T04:12:47.693Z,65.50
2023-05-22T04:13:19.390Z,64.28
2023-05-22T04:13:52.013Z,65.53
2023-05-22T04:14:23.635Z,65.47
2023-05-22T04:14:55.396Z,64.40
2023-05-22T04:15:27.094Z,64.88
2023-05-22T04:16:02.028Z,64.78
2023-05-22T04:16:33.978Z,64.82
2023-05-22T04:17:05.660Z,63.95
2023-05-22T04:17:40.004Z,65.15
2023-05-22T04:18:12.021Z,64.15
2023-05-22T04:18:43.825Z,64.05
2023-05-22T04:19:19.013Z,65.32
2023-05-22T04:19:50.834Z,64.18
2023-05-22T04:20:22.520Z,64.70
2023-05-22T04:20:57.521Z,64.65
2023-05-22T04:21:29.191Z,64.30
2023-05-22T04:22:00.829Z,65.43
2023-05-22T04:22:33.629Z,64.30
2023-05-22T04:23:05.309Z,64.25
2023-05-22T04:23:38.623Z,66.13
2023-05-22T04:24:10.816Z,64.68
2023-05-22T04:24:43.488Z,64.13
2023-05-22T04:25:15.264Z,64.95
2023-05-22T04:25:47.908Z,65.90
2023-05-22T04:26:20.793Z,65.13
2023-05-22T04:26:53.526Z,64.50
2023-05-22T04:27:26.374Z,64.03
2023-05-22T04:27:59.519Z,64.10
2023-05-22T04:28:32.602Z,64.38
2023-05-22T04:29:04.412Z,65.13
2023-05-22T04:29:36.549Z,64.78
2023-05-22T04:30:10.513Z,63.78
2023-05-22T04:30:43.793Z,65.03
2023-05-22T04:31:15.486Z,64.60
2023-05-22T04:31:48.267Z,65.57
2023-05-22T04:32:21.852Z,64.95
2023-05-22T04:32:53.680Z,65.20
2023-05-22T04:33:29.002Z,66.15
2023-05-22T04:34:02.617Z,64.65
2023-05-22T04:34:38.223Z,64.65
2023-05-22T04:35:10.182Z,64.20
2023-05-22T04:35:44.414Z,65.20
2023-05-22T04:36:20.621Z,65.25
2023-05-22T04:36:56.182Z,64.78
2023-05-22T04:37:31.854Z,65.85
2023-05-22T04:38:03.626Z,65.55
2023-05-22T04:38:37.271Z,64.65
2023-05-22T04:39:08.931Z,65.55
2023-05-22T04:39:42.196Z,65.85
2023-05-22T04:40:15.360Z,64.47
2023-05-22T04:40:47.853Z,65.20
2023-05-22T04:41:22.701Z,64.57
2023-05-22T04:41:58.245Z,65.43
2023-05-22T04:42:30.879Z,65.00
2023-05-22T04:43:03.433Z,64.65
2023-05-22T04:43:38.737Z,65.53
2023-05-22T04:44:10.473Z,65.53
2023-05-22T04:44:42.666Z,65.20
2023-05-22T04:45:19.396Z,64.75
2023-05-22T04:45:51.568Z,65.95
2023-05-22T04:46:23.245Z,65.03
2023-05-22T04:46:57.341Z,66.07
2023-05-22T04:47:31.848Z,64.78
2023-05-22T04:48:08.697Z,65.60
2023-05-22T04:48:42.547Z,65.38
2023-05-22T04:49:14.303Z,65.25
2023-05-22T04:49:47.382Z,65.93
2023-05-22T04:50:20.592Z,64.57
2023-05-22T04:50:54.286Z,65.03
2023-05-22T04:51:26.178Z,66.03
2023-05-22T04:51:58.828Z,66.50
2023-05-22T04:52:30.497Z,66.35
2023-05-22T04:53:05.806Z,64.80
2023-05-22T04:53:38.698Z,65.65
2023-05-22T04:54:10.545Z,65.90
2023-05-22T04:54:44.438Z,65.45
2023-05-22T04:55:17.412Z,65.75
2023-05-22T04:55:49.232Z,65.50
2023-05-22T04:56:34.827Z,65.50
2023-05-22T04:57:08.870Z,65.38
2023-05-22T04:57:40.746Z,65.88
2023-05-22T04:58:13.872Z,66.05
2023-05-22T04:58:45.922Z,66.43
2023-05-22T04:59:17.599Z,66.28
2023-05-22T04:59:50.241Z,64.57
2023-05-22T05:00:26.401Z,64.95
2023-05-22T05:00:59.177Z,66.00
2023-05-22T05:01:33.545Z,65.53
2023-05-22T05:02:05.488Z,65.22
2023-05-22T05:02:38.334Z,65.18
2023-05-22T05:03:11.842Z,65.97
2023-05-22T05:03:44.989Z,65.22
2023-05-22T05:04:17.003Z,66.60
2023-05-22T05:04:50.043Z,66.07
2023-05-22T05:05:22.810Z,64.80
2023-05-22T05:05:54.787Z,65.57
2023-05-22T05:06:27.356Z,65.88
2023-05-22T05:07:00.293Z,65.07
2023-05-22T05:07:31.956Z,65.60
2023-05-22T05:08:03.732Z,66.20
2023-05-22T05:08:37.591Z,66.82
2023-05-22T05:09:09.303Z,65.28
2023-05-22T05:09:41.392Z,65.93
2023-05-22T05:10:14.090Z,65.97
2023-05-22T05:10:45.958Z,66.40
2023-05-22T05:11:18.074Z,66.22
2023-05-22T05:11:50.807Z,67.28
2023-05-22T05:12:22.500Z,66.97
2023-05-22T05:12:54.221Z,65.95
2023-05-22T05:13:26.945Z,67.25
2023-05-22T05:13:58.628Z,66.85
2023-05-22T05:14:30.261Z,65.25
2023-05-22T05:15:03.638Z,65.95
2023-05-22T05:15:35.447Z,66.10
2023-05-22T05:16:07.889Z,67.22
2023-05-22T05:16:41.199Z,66.47
2023-05-22T05:17:13.825Z,66.35
2023-05-22T05:17:45.707Z,67.63
2023-05-22T05:18:19.569Z,66.43
2023-05-22T05:18:51.784Z,67.53
2023-05-22T05:19:23.577Z,66.25
2023-05-22T05:19:58.696Z,67.78
2023-05-22T05:20:30.853Z,66.82
2023-05-22T05:21:02.621Z,66.70
2023-05-22T05:21:35.325Z,66.72
2023-05-22T05:22:06.966Z,68.32
2023-05-22T05:22:39.760Z,67.70
2023-05-22T05:23:12.569Z,67.13
2023-05-22T05:23:44.443Z,67.60
2023-05-22T05:24:16.310Z,67.38
2023-05-22T05:24:49.176Z,68.82
2023-05-22T05:25:21.565Z,67.63
2023-05-22T05:25:53.410Z,68.25
2023-05-22T05:26:27.323Z,67.50
2023-05-22T05:26:59.425Z,68.80
2023-05-22T05:27:31.361Z,67.80
2023-05-22T05:28:10.273Z,66.60
2023-05-22T05:28:42.098Z,68.45
2023-05-22T05:29:14.247Z,67.68
2023-05-22T05:29:54.213Z,67.22
2023-05-22T05:30:31.819Z,66.97
2023-05-22T05:31:13.181Z,66.80
2023-05-22T05:31:56.967Z,67.57
2023-05-22T05:32:45.752Z,67.95
2023-05-22T05:33:28.847Z,66.68
2023-05-22T05:34:11.332Z,67.32
2023-05-22T05:35:02.374Z,66.75
2023-05-22T05:35:54.374Z,67.47
2023-05-22T05:36:29.189Z,67.28
2023-05-22T05:37:01.573Z,66.15
2023-05-22T05:37:34.494Z,66.05
2023-05-22T05:38:07.968Z,66.45
2023-05-22T05:38:40.592Z,66.72
2023-05-22T05:39:13.645Z,64.75
2023-05-22T05:39:45.460Z,66.38
2023-05-22T05:40:17.357Z,65.95
2023-05-22T05:40:54.984Z,65.72
2023-05-22T05:41:27.004Z,66.95
2023-05-22T05:42:05.942Z,66.15
2023-05-22T05:42:38.685Z,66.57
2023-05-22T05:43:11.266Z,65.38
2023-05-22T05:43:43.607Z,64.78
2023-05-22T05:44:17.108Z,66.47
2023-05-22T05:44:48.856Z,65.85
2023-05-22T05:45:20.651Z,65.35
2023-05-22T05:45:53.407Z,65.85
2023-05-22T05:46:25.927Z,65.53
2023-05-22T05:46:57.880Z,65.63
2023-05-22T05:47:31.931Z,65.93
2023-05-22T05:48:04.113Z,65.25
2023-05-22T05:48:35.944Z,65.47
2023-05-22T05:49:11.190Z,65.72
2023-05-22T05:49:44.614Z,65.03
2023-05-22T05:50:18.783Z,65.05
2023-05-22T05:50:51.488Z,65.50
2023-05-22T05:51:23.640Z,66.07
2023-05-22T05:51:55.430Z,64.60
2023-05-22T05:52:32.614Z,65.40
2023-05-22T05:53:06.321Z,65.68
2023-05-22T05:53:40.639Z,65.68
2023-05-22T05:54:13.684Z,65.60
2023-05-22T05:54:47.506Z,65.05
2023-05-22T05:55:21.868Z,66.00
2023-05-22T05:55:55.115Z,65.25
2023-05-22T05:56:27.101Z,66.33
2023-05-22T05:57:00.258Z,65.00
2023-05-22T05:57:32.029Z,65.32
2023-05-22T05:58:03.959Z,66.93
2023-05-22T05:58:46.204Z,65.47
2023-05-22T05:59:35.557Z,65.78
2023-05-22T06:00:29.061Z,65.75
2023-05-22T06:01:03.394Z,65.97
2023-05-22T06:01:35.834Z,66.18
2023-05-22T06:02:10.519Z,65.22
2023-05-22T06:02:42.471Z,65.50
2023-05-22T06:03:33.788Z,65.97
2023-05-22T06:04:14.852Z,65.47
2023-05-22T06:04:48.361Z,66.60
2023-05-22T06:05:23.733Z,65.20
2023-05-22T06:06:03.445Z,65.78
2023-05-22T06:07:01.995Z,65.93
2023-05-22T06:07:50.989Z,65.85
2023-05-22T06:08:23.544Z,65.97
2023-05-22T06:08:55.355Z,67.05
2023-05-22T06:09:33.960Z,65.60
2023-05-22T06:10:14.637Z,65.88
2023-05-22T06:10:57.077Z,65.22
2023-05-22T06:11:37.970Z,66.28
2023-05-22T06:12:12.610Z,66.28
2023-05-22T06:12:46.825Z,64.77
2023-05-22T06:13:18.496Z,66.07
2023-05-22T06:13:50.449Z,65.40
2023-05-22T06:14:23.365Z,65.22
2023-05-22T06:14:55.072Z,65.40
2023-05-22T06:15:27.087Z,65.28
2023-05-22T06:16:02.766Z,66.55
2023-05-22T06:16:36.697Z,65.47
2023-05-22T06:17:09.212Z,66.43
2023-05-22T06:17:44.613Z,66.43
2023-05-22T06:18:17.273Z,65.47
2023-05-22T06:18:52.158Z,65.43
2023-05-22T06:19:24.698Z,65.07
2023-05-22T06:19:57.594Z,66.22
2023-05-22T06:20:30.996Z,64.93
2023-05-22T06:21:03.843Z,66.03
2023-05-22T06:21:35.880Z,65.47
2023-05-22T06:22:07.805Z,67.53
2023-05-22T06:22:41.494Z,65.80
2023-05-22T06:23:13.816Z,66.05
2023-05-22T06:23:45.585Z,65.93
2023-05-22T06:24:18.686Z,65.75
2023-05-22T06:24:50.395Z,66.78
2023-05-22T06:25:26.214Z,65.72
2023-05-22T06:25:58.257Z,65.70
2023-05-22T06:26:31.094Z,66.13
2023-05-22T06:27:03.772Z,66.00
2023-05-22T06:27:36.203Z,65.50
2023-05-22T06:28:08.115Z,66.22
2023-05-22T06:28:40.836Z,66.55
2023-05-22T06:29:12.519Z,65.57
2023-05-22T06:29:44.491Z,66.40
2023-05-22T06:30:28.315Z,66.40
2023-05-22T06:31:09.905Z,66.55
2023-05-22T06:31:44.035Z,66.47
2023-05-22T06:32:16.058Z,65.35
2023-05-22T06:32:48.647Z,66.40
2023-05-22T06:33:22.292Z,65.90
2023-05-22T06:33:54.155Z,66.25
2023-05-22T06:34:29.304Z,65.68
2023-05-22T06:35:04.286Z,66.20
2023-05-22T06:35:37.365Z,66.00
2023-05-22T06:36:11.449Z,66.22
2023-05-22T06:36:45.982Z,66.65
2023-05-22T06:37:18.452Z,66.78
2023-05-22T06:37:52.274Z,67.05
2023-05-22T06:38:24.979Z,66.55
2023-05-22T06:38:56.691Z,67.60
2023-05-22T06:39:58.574Z,67.10
2023-05-22T06:40:36.105Z,66.93
2023-05-22T06:41:16.570Z,66.32
2023-05-22T06:41:48.234Z,66.78
2023-05-22T06:42:20.261Z,66.63
2023-05-22T06:43:11.255Z,65.97
2023-05-22T06:43:49.635Z,67.18
2023-05-22T06:44:27.766Z,68.28
2023-05-22T06:45:00.864Z,66.72
2023-05-22T06:45:41.873Z,67.55
2023-05-22T06:46:40.503Z,66.30
2023-05-22T06:47:13.445Z,66.30
2023-05-22T06:47:45.569Z,66.97
2023-05-22T06:48:18.367Z,66.40
2023-05-22T06:49:16.826Z,66.63
2023-05-22T06:49:50.907Z,66.53
2023-05-22T06:50:23.627Z,66.75
2023-05-22T06:50:57.000Z,65.88
2023-05-22T06:51:29.555Z,67.03
2023-05-22T06:52:10.131Z,66.95
2023-05-22T06:52:42.399Z,66.40
2023-05-22T06:53:16.266Z,65.97
2023-05-22T06:53:48.990Z,67.47
2023-05-22T06:54:28.724Z,65.88
2023-05-22T06:55:05.674Z,66.32
2023-05-22T06:55:44.392Z,64.90
2023-05-22T06:56:24.879Z,66.50
2023-05-22T06:57:03.843Z,66.60
2023-05-22T06:57:36.303Z,66.55
2023-05-22T06:58:10.417Z,65.80
2023-05-22T06:58:42.121Z,66.60
2023-05-22T06:59:14.085Z,65.13
2023-05-22T06:59:52.614Z,65.45
2023-05-22T07:00:44.242Z,66.18
2023-05-22T07:01:24.474Z,66.13
2023-05-22T07:02:09.053Z,66.45
2023-05-22T07:03:13.442Z,66.88
2023-05-22T07:04:13.314Z,65.80
2023-05-22T07:04:56.173Z,65.55
2023-05-22T07:05:37.454Z,66.65
2023-05-22T07:06:12.320Z,66.50
2023-05-22T07:06:45.604Z,66.22
2023-05-22T07:07:18.104Z,65.97
2023-05-22T07:07:51.019Z,65.88
2023-05-22T07:08:22.776Z,65.72
2023-05-22T07:08:54.924Z,65.85
2023-05-22T07:09:27.784Z,65.82
2023-05-22T07:09:59.562Z,64.28
2023-05-22T07:10:33.370Z,65.50
2023-05-22T07:11:06.864Z,65.93
2023-05-22T07:11:38.675Z,65.38
2023-05-22T07:12:11.371Z,65.13
2023-05-22T07:12:44.230Z,65.45
2023-05-22T07:13:15.939Z,64.88
2023-05-22T07:13:48.894Z,65.35
2023-05-22T07:14:20.962Z,65.88
2023-05-22T07:14:52.782Z,65.18
2023-05-22T07:15:27.715Z,65.07
2023-05-22T07:16:03.497Z,64.82
2023-05-22T07:16:36.922Z,65.45
2023-05-22T07:17:10.018Z,64.93
2023-05-22T07:17:46.515Z,64.53
2023-05-22T07:18:19.280Z,65.05
2023-05-22T07:18:50.962Z,64.93
2023-05-22T07:19:22.785Z,65.10
2023-05-22T07:19:55.652Z,65.43